METAR Data
IDs: Format: Raw Decoded Include TAF

Data at: 0002 UTC 19 Oct 2019

METAR for:K0CO (Berthoud Pass, CO, US)
Text:K0CO 182353Z AUTO 31027G36KT SCT011 M08/M18 A2998 RMK AO2 PWINO
Temperature: -8.0°C ( 18°F)
Dewpoint:-18.0°C ( -0°F) [RH = 44%]
Pressure (altimeter):29.98 inches Hg (1015.3 mb)
Winds:from the NW (310 degrees) at 31 MPH (27 knots; 13.9 m/s) gusting to 41 MPH (36 knots; 18.5 m/s)
Ceiling:at least 12,000 feet AGL
Clouds: scattered clouds at 1100 feet AGL
QC Flag:automated observation with no human augmentation